Time;durP1;ratioP1;P1;durP2;ratioP2;P2;SDS_P1;SDS_P2;PMS_P1;PMS_P2;Temp;Humidity;BMP_temperature;BMP_pressure;BME280_temperature;BME280_humidity;BME280_pressure;Samples;Min_cycle;Max_cycle;Signal;HPM_P1;HPM_P2
2023/12/15 00:00:46;;;;;;;731.25;416.67;;;;;;;;;;10483064;28;20027;-80
2023/12/15 00:05:47;;;;;;;744.08;476.13;;;;;;;;;;10484359;28;20389;-77
2023/12/15 00:10:47;;;;;;;1.73;0.70;;;;;;;;;;10484731;28;20033;-77
2023/12/15 00:15:47;;;;;;;0.50;0.50;;;;;;;;;;10482376;28;20062;-80
2023/12/15 00:20:47;;;;;;;1.30;0.60;;;;;;;;;;10482273;28;20475;-76
2023/12/15 00:25:48;;;;;;;0.90;0.60;;;;;;;;;;10488159;28;20048;-80
2023/12/15 00:30:48;;;;;;;0.88;0.55;;;;;;;;;;10489770;28;20035;-77
2023/12/15 00:35:48;;;;;;;1.50;0.80;;;;;;;;;;10490813;28;20054;-77
2023/12/15 00:40:49;;;;;;;0.63;0.40;;;;;;;;;;10489001;28;20020;-77
2023/12/15 00:45:49;;;;;;;737.60;434.00;;;;;;;;;;10488665;28;20471;-77
2023/12/15 00:50:49;;;;;;;725.40;438.58;;;;;;;;;;10489151;28;20042;-85
2023/12/15 00:55:49;;;;;;;0.35;0.30;;;;;;;;;;10489044;28;20419;-80
2023/12/15 01:00:49;;;;;;;0.82;0.57;;;;;;;;;;10488512;28;20028;-77
2023/12/15 01:05:50;;;;;;;0.45;0.45;;;;;;;;;;10488342;28;20048;-77
2023/12/15 01:10:50;;;;;;;0.90;0.40;;;;;;;;;;10488946;28;20570;-79
2023/12/15 01:15:51;;;;;;;698.00;314.52;;;;;;;;;;10487845;28;20387;-77
2023/12/15 01:20:52;;;;;;;1.00;0.40;;;;;;;;;;10487841;28;20024;-81
2023/12/15 01:25:53;;;;;;;0.65;0.50;;;;;;;;;;10488571;28;20024;-81
2023/12/15 01:30:53;;;;;;;0.70;0.50;;;;;;;;;;10490728;28;20356;-81
2023/12/15 01:35:54;;;;;;;1.20;0.60;;;;;;;;;;10488253;28;20078;-80
2023/12/15 01:40:54;;;;;;;0.95;0.73;;;;;;;;;;10488368;28;20131;-76
2023/12/15 01:45:54;;;;;;;2.13;0.82;;;;;;;;;;10457046;28;20182;-79
2023/12/15 01:50:55;;;;;;;1.65;0.82;;;;;;;;;;10481083;28;20035;-81
2023/12/15 01:55:55;;;;;;;2.60;0.80;;;;;;;;;;10481689;28;20024;-82
2023/12/15 02:00:55;;;;;;;0.47;0.40;;;;;;;;;;10485599;28;20016;-82
2023/12/15 02:05:57;;;;;;;0.73;0.47;;;;;;;;;;10485586;28;20016;-81
2023/12/15 02:10:57;;;;;;;1.00;0.60;;;;;;;;;;10459563;28;20039;-78
2023/12/15 02:15:57;;;;;;;2.20;0.93;;;;;;;;;;10485432;28;20584;-81
2023/12/15 02:20:57;;;;;;;1.10;0.70;;;;;;;;;;10483003;28;20052;-80
2023/12/15 02:25:58;;;;;;;0.88;0.63;;;;;;;;;;10482808;28;20039;-83
2023/12/15 02:30:58;;;;;;;138.75;82.53;;;;;;;;;;10479309;28;20020;-76
2023/12/15 02:35:58;;;;;;;2.08;1.17;;;;;;;;;;10484715;28;20070;-76
2023/12/15 02:40:58;;;;;;;2.03;1.20;;;;;;;;;;10479510;28;20021;-75
2023/12/15 02:45:59;;;;;;;2.03;1.35;;;;;;;;;;10484384;28;20479;-82
2023/12/15 02:50:59;;;;;;;2.88;1.70;;;;;;;;;;10484223;28;20032;-81
2023/12/15 02:55:59;;;;;;;2.07;1.40;;;;;;;;;;10482947;28;20419;-80
2023/12/15 03:01:00;;;;;;;6.90;3.40;;;;;;;;;;10481255;28;20262;-82
2023/12/15 03:06:00;;;;;;;4.47;2.77;;;;;;;;;;10483387;28;20310;-85
2023/12/15 03:11:00;;;;;;;6.50;3.92;;;;;;;;;;10479820;28;20033;-82
2023/12/15 03:16:06;;;;;;;7.72;4.35;;;;;;;;;;10482582;28;20024;-75
2023/12/15 03:21:07;;;;;;;8.30;4.95;;;;;;;;;;10473541;28;20078;-75
2023/12/15 03:26:07;;;;;;;8.63;4.93;;;;;;;;;;10483508;28;20556;-75
2023/12/15 03:31:08;;;;;;;11.60;6.40;;;;;;;;;;10484392;28;20024;-75
2023/12/15 03:36:08;;;;;;;10.20;5.65;;;;;;;;;;10484631;28;20053;-77
2023/12/15 03:41:12;;;;;;;13.27;7.28;;;;;;;;;;10483584;28;20032;-75
2023/12/15 03:46:12;;;;;;;16.05;8.15;;;;;;;;;;10490364;28;20409;-75
2023/12/15 03:51:13;;;;;;;18.83;9.15;;;;;;;;;;10486213;28;20033;-76
2023/12/15 03:56:13;;;;;;;19.33;9.00;;;;;;;;;;10484012;28;20020;-81
2023/12/15 04:01:13;;;;;;;21.73;11.27;;;;;;;;;;10491637;28;20107;-77
2023/12/15 04:06:13;;;;;;;26.27;10.88;;;;;;;;;;10491231;28;20116;-75
2023/12/15 04:11:17;;;;;;;21.30;9.88;;;;;;;;;;10491874;28;20115;-77
2023/12/15 04:16:17;;;;;;;20.35;10.93;;;;;;;;;;10490410;28;20028;-75
2023/12/15 04:21:17;;;;;;;17.95;10.52;;;;;;;;;;10494618;28;20035;-80
2023/12/15 04:26:17;;;;;;;20.80;10.52;;;;;;;;;;10491149;28;20065;-76
2023/12/15 04:31:18;;;;;;;23.02;12.35;;;;;;;;;;10489640;28;20036;-78
2023/12/15 04:36:22;;;;;;;20.65;11.60;;;;;;;;;;10493416;28;20056;-77
2023/12/15 04:41:23;;;;;;;19.38;10.60;;;;;;;;;;10489793;28;20107;-79
2023/12/15 04:46:24;;;;;;;23.23;12.63;;;;;;;;;;10490686;28;20055;-76
2023/12/15 04:51:25;;;;;;;155.30;97.78;;;;;;;;;;10488782;28;20115;-75
2023/12/15 04:56:26;;;;;;;20.80;11.00;;;;;;;;;;10488847;28;20024;-79
2023/12/15 05:01:26;;;;;;;22.17;11.70;;;;;;;;;;10487265;28;20115;-78
2023/12/15 05:06:27;;;;;;;20.92;11.27;;;;;;;;;;10486263;28;20040;-75
2023/12/15 05:11:27;;;;;;;23.75;12.52;;;;;;;;;;10479071;28;20032;-77
2023/12/15 05:16:29;;;;;;;21.42;11.27;;;;;;;;;;10463382;28;20029;-76
2023/12/15 05:21:29;;;;;;;21.85;11.52;;;;;;;;;;10483230;28;20051;-76
2023/12/15 05:26:29;;;;;;;21.70;11.82;;;;;;;;;;10476721;28;20115;-77
2023/12/15 05:31:31;;;;;;;20.50;11.00;;;;;;;;;;10491260;28;20020;-77
2023/12/15 05:36:31;;;;;;;23.90;11.35;;;;;;;;;;10479915;28;20085;-76
2023/12/15 05:41:31;;;;;;;20.90;10.95;;;;;;;;;;10476917;28;20024;-78
2023/12/15 05:46:31;;;;;;;22.92;12.00;;;;;;;;;;10478658;28;20057;-76
2023/12/15 05:51:32;;;;;;;21.65;12.70;;;;;;;;;;10467066;28;20098;-80
2023/12/15 05:56:32;;;;;;;18.27;11.38;;;;;;;;;;10473007;28;20032;-80
2023/12/15 06:01:32;;;;;;;22.42;11.13;;;;;;;;;;10482406;28;20502;-78
2023/12/15 06:06:32;;;;;;;24.23;11.38;;;;;;;;;;10482343;28;20061;-77
2023/12/15 06:11:33;;;;;;;219.80;141.27;;;;;;;;;;10482830;28;20028;-76
2023/12/15 06:16:33;;;;;;;19.35;10.38;;;;;;;;;;10481119;28;20024;-78
2023/12/15 06:21:33;;;;;;;19.63;11.32;;;;;;;;;;10477545;28;20461;-77
2023/12/15 06:26:34;;;;;;;22.17;11.30;;;;;;;;;;10477734;28;20047;-75
2023/12/15 06:31:34;;;;;;;20.90;11.85;;;;;;;;;;10470531;28;20094;-77
2023/12/15 06:36:34;;;;;;;25.00;11.93;;;;;;;;;;10480491;28;20515;-81
2023/12/15 06:41:34;;;;;;;23.52;11.00;;;;;;;;;;10480415;28;20048;-77
2023/12/15 06:46:36;;;;;;;24.08;12.75;;;;;;;;;;10481578;28;20036;-76
2023/12/15 06:51:37;;;;;;;22.10;11.88;;;;;;;;;;10482094;28;20032;-76
2023/12/15 06:56:38;;;;;;;24.38;11.07;;;;;;;;;;10480021;28;20035;-77
2023/12/15 07:01:38;;;;;;;27.80;12.65;;;;;;;;;;10480260;28;20139;-77
2023/12/15 07:06:39;;;;;;;298.75;272.92;;;;;;;;;;10495905;28;20438;-81
2023/12/15 07:11:40;;;;;;;26.17;14.23;;;;;;;;;;10471864;28;20035;-77
2023/12/15 07:16:40;;;;;;;27.88;14.82;;;;;;;;;;10474165;28;20038;-81
2023/12/15 07:21:40;;;;;;;30.90;15.25;;;;;;;;;;10480463;28;20111;-76
2023/12/15 07:26:40;;;;;;;30.42;16.02;;;;;;;;;;10479773;28;20128;-80
2023/12/15 07:31:40;;;;;;;28.67;14.45;;;;;;;;;;10479639;28;20035;-77
2023/12/15 07:36:42;;;;;;;28.60;14.20;;;;;;;;;;10477889;28;20562;-78
2023/12/15 07:41:43;;;;;;;24.25;12.32;;;;;;;;;;10481823;28;20073;-77
2023/12/15 07:46:43;;;;;;;26.23;13.95;;;;;;;;;;10480633;28;20024;-77
2023/12/15 07:51:44;;;;;;;37.15;16.25;;;;;;;;;;10479577;28;20077;-76
2023/12/15 07:56:44;;;;;;;22.77;12.37;;;;;;;;;;10482344;28;20520;-80
2023/12/15 08:01:48;;;;;;;29.38;15.40;;;;;;;;;;10482573;28;20267;-79
2023/12/15 08:06:48;;;;;;;29.23;14.20;;;;;;;;;;10479941;28;20111;-82
2023/12/15 08:11:48;;;;;;;28.92;14.35;;;;;;;;;;10479102;28;20027;-77
2023/12/15 08:16:49;;;;;;;27.73;15.02;;;;;;;;;;10479879;28;20600;-77
2023/12/15 08:21:51;;;;;;;29.48;13.88;;;;;;;;;;10478824;28;20028;-78
2023/12/15 08:26:53;;;;;;;26.52;12.75;;;;;;;;;;10479377;28;20025;-77
2023/12/15 08:31:54;;;;;;;29.05;13.93;;;;;;;;;;10480274;28;20027;-80
2023/12/15 08:36:54;;;;;;;28.80;12.70;;;;;;;;;;10479094;28;20044;-75
2023/12/15 08:41:54;;;;;;;20.67;11.05;;;;;;;;;;10478619;28;20054;-75
2023/12/15 08:46:54;;;;;;;27.90;13.25;;;;;;;;;;10484661;28;20029;-76
2023/12/15 08:51:54;;;;;;;29.42;12.73;;;;;;;;;;10448294;28;20020;-78
2023/12/15 08:56:55;;;;;;;23.77;13.52;;;;;;;;;;10479326;28;20422;-76
2023/12/15 09:01:55;;;;;;;26.13;13.05;;;;;;;;;;10483211;28;20485;-77
2023/12/15 09:06:56;;;;;;;31.38;14.85;;;;;;;;;;10485810;28;20059;-82
2023/12/15 09:11:57;;;;;;;28.00;14.82;;;;;;;;;;10501113;28;20024;-80
2023/12/15 09:16:57;;;;;;;30.80;14.20;;;;;;;;;;10484264;28;20483;-78
2023/12/15 09:21:57;;;;;;;31.57;14.93;;;;;;;;;;10483939;28;20028;-77
2023/12/15 09:26:58;;;;;;;28.20;14.57;;;;;;;;;;10486787;28;20317;-79
2023/12/15 09:31:58;;;;;;;44.80;16.95;;;;;;;;;;10481952;28;20029;-75
2023/12/15 09:36:58;;;;;;;27.65;14.18;;;;;;;;;;10483941;28;20048;-75
2023/12/15 09:41:58;;;;;;;43.28;17.77;;;;;;;;;;10486156;28;20042;-76
2023/12/15 09:46:59;;;;;;;33.10;15.55;;;;;;;;;;10481889;28;20081;-78
2023/12/15 09:52:01;;;;;;;37.10;16.33;;;;;;;;;;10485866;28;20157;-76
2023/12/15 09:57:03;;;;;;;30.73;15.60;;;;;;;;;;10483924;28;20087;-75
2023/12/15 10:02:04;;;;;;;38.00;18.05;;;;;;;;;;10483766;28;20013;-80
2023/12/15 10:07:04;;;;;;;30.17;15.10;;;;;;;;;;10483505;28;20490;-77
2023/12/15 10:12:08;;;;;;;34.08;18.27;;;;;;;;;;10485961;28;20029;-76
2023/12/15 10:17:09;;;;;;;31.88;15.18;;;;;;;;;;10487611;28;20094;-75
2023/12/15 10:22:10;;;;;;;36.13;17.33;;;;;;;;;;10484617;28;20477;-76
2023/12/15 10:27:10;;;;;;;41.20;18.90;;;;;;;;;;10481343;28;20028;-77
2023/12/15 10:32:10;;;;;;;30.80;17.48;;;;;;;;;;10481084;28;20028;-76
2023/12/15 10:37:10;;;;;;;36.78;18.25;;;;;;;;;;10481153;28;20105;-76
2023/12/15 10:42:11;;;;;;;33.92;17.98;;;;;;;;;;10482355;28;20086;-74
2023/12/15 10:47:12;;;;;;;35.45;17.10;;;;;;;;;;10479400;28;20181;-77
2023/12/15 10:52:15;;;;;;;50.15;16.52;;;;;;;;;;10481995;28;20886;-84
2023/12/15 10:57:15;;;;;;;36.63;15.45;;;;;;;;;;10478076;28;20025;-75
2023/12/15 11:02:17;;;;;;;38.33;18.30;;;;;;;;;;10480480;28;20025;-76
2023/12/15 11:07:24;;;;;;;27.23;14.10;;;;;;;;;;10480230;28;20030;-76
2023/12/15 11:12:28;;;;;;;27.02;12.98;;;;;;;;;;10480017;28;20032;-76
2023/12/15 11:17:28;;;;;;;31.05;14.23;;;;;;;;;;10466083;28;20025;-76
2023/12/15 11:22:29;;;;;;;21.52;11.45;;;;;;;;;;10479839;28;20727;-75
2023/12/15 11:27:29;;;;;;;23.63;13.07;;;;;;;;;;10481971;28;20029;-77
2023/12/15 11:32:30;;;;;;;31.63;13.90;;;;;;;;;;10478803;28;20392;-77
2023/12/15 11:37:30;;;;;;;24.48;12.15;;;;;;;;;;10481978;28;20114;-77
2023/12/15 11:42:31;;;;;;;18.63;10.40;;;;;;;;;;10480034;28;20017;-80
2023/12/15 11:47:32;;;;;;;15.95;8.68;;;;;;;;;;10472696;28;20258;-76
2023/12/15 11:52:32;;;;;;;21.88;11.45;;;;;;;;;;10485139;28;20111;-76
2023/12/15 11:57:35;;;;;;;20.80;11.02;;;;;;;;;;10497343;28;20036;-76
2023/12/15 12:02:36;;;;;;;18.67;9.65;;;;;;;;;;10480701;28;20411;-80
2023/12/15 12:07:37;;;;;;;21.73;8.95;;;;;;;;;;10478574;28;20028;-76
2023/12/15 12:12:37;;;;;;;17.85;8.00;;;;;;;;;;10478079;28;20035;-80
2023/12/15 12:17:41;;;;;;;13.40;7.68;;;;;;;;;;10477484;28;20101;-77
2023/12/15 12:22:41;;;;;;;13.45;7.15;;;;;;;;;;10486079;28;20016;-76
2023/12/15 12:27:44;;;;;;;7.35;4.10;;;;;;;;;;10490336;28;20024;-76
2023/12/15 12:32:46;;;;;;;11.98;3.85;;;;;;;;;;10490387;28;20028;-78
2023/12/15 12:37:48;;;;;;;10.57;5.28;;;;;;;;;;10511316;28;20052;-76
2023/12/15 12:42:48;;;;;;;8.50;5.72;;;;;;;;;;10487526;28;20135;-76
2023/12/15 12:47:49;;;;;;;13.13;5.03;;;;;;;;;;10487467;28;20029;-77
2023/12/15 12:52:49;;;;;;;9.50;4.53;;;;;;;;;;10502898;28;20064;-77
2023/12/15 12:57:50;;;;;;;4.88;2.90;;;;;;;;;;10487996;28;20119;-80
2023/12/15 13:02:50;;;;;;;4.53;2.45;;;;;;;;;;10483381;28;20054;-81
2023/12/15 13:07:51;;;;;;;3.17;1.80;;;;;;;;;;10487139;28;20075;-77
2023/12/15 13:12:54;;;;;;;2.50;1.10;;;;;;;;;;10482941;28;20028;-78
2023/12/15 13:17:59;;;;;;;3.53;1.48;;;;;;;;;;10485079;28;20027;-76
2023/12/15 13:22:59;;;;;;;2.63;1.70;;;;;;;;;;10493945;22;20673;-76
2023/12/15 13:27:59;;;;;;;5.40;2.83;;;;;;;;;;10427952;28;20051;-78
2023/12/15 13:33:00;;;;;;;3.10;1.88;;;;;;;;;;10444569;28;20021;-78
2023/12/15 13:38:00;;;;;;;3.50;2.20;;;;;;;;;;10445030;28;20031;-78
2023/12/15 13:43:00;;;;;;;12.90;6.00;;;;;;;;;;10443395;28;20699;-78
2023/12/15 13:48:00;;;;;;;10.55;5.35;;;;;;;;;;10442889;28;20466;-77
2023/12/15 13:53:02;;;;;;;10.15;5.10;;;;;;;;;;10441673;28;20098;-76
2023/12/15 13:58:03;;;;;;;11.15;5.20;;;;;;;;;;10431382;28;20029;-77
2023/12/15 14:03:03;;;;;;;8.80;5.27;;;;;;;;;;10434869;28;20418;-75
2023/12/15 14:08:03;;;;;;;8.30;5.57;;;;;;;;;;10436954;28;20518;-76
2023/12/15 14:13:04;;;;;;;14.95;6.85;;;;;;;;;;10484832;28;20024;-81
2023/12/15 14:18:07;;;;;;;11.38;6.75;;;;;;;;;;10485404;28;20626;-77
2023/12/15 14:23:09;;;;;;;14.25;5.85;;;;;;;;;;10468459;28;20044;-78
2023/12/15 14:28:09;;;;;;;8.93;5.05;;;;;;;;;;10482719;28;20023;-77
2023/12/15 14:33:09;;;;;;;6.95;4.53;;;;;;;;;;10497900;28;20482;-79
2023/12/15 14:38:10;;;;;;;6.38;4.18;;;;;;;;;;10495981;28;20051;-79
2023/12/15 14:43:10;;;;;;;6.70;4.07;;;;;;;;;;10458637;28;20119;-78
2023/12/15 14:48:10;;;;;;;6.10;3.22;;;;;;;;;;10477305;28;20423;-76
2023/12/15 14:53:11;;;;;;;4.25;2.70;;;;;;;;;;10481931;28;20077;-77
2023/12/15 14:58:12;;;;;;;6.40;2.53;;;;;;;;;;10457952;28;20455;-76
2023/12/15 15:03:13;;;;;;;3.00;2.42;;;;;;;;;;10444369;28;20481;-78
2023/12/15 15:08:13;;;;;;;4.38;2.47;;;;;;;;;;10468924;28;20036;-76
2023/12/15 15:13:14;;;;;;;3.42;2.30;;;;;;;;;;10464989;28;20032;-81
2023/12/15 15:18:14;;;;;;;8.77;2.90;;;;;;;;;;10463058;28;20024;-75
2023/12/15 15:23:14;;;;;;;4.20;3.13;;;;;;;;;;10462500;28;20052;-76
2023/12/15 15:28:15;;;;;;;6.28;3.17;;;;;;;;;;10478973;28;20025;-76
2023/12/15 15:33:15;;;;;;;5.13;3.03;;;;;;;;;;10459189;28;20101;-77
2023/12/15 15:38:16;;;;;;;3.73;2.53;;;;;;;;;;10461788;28;20617;-75
2023/12/15 15:43:17;;;;;;;5.95;3.20;;;;;;;;;;10461016;28;20270;-78
2023/12/15 15:48:17;;;;;;;8.93;4.30;;;;;;;;;;10463330;28;20550;-78
2023/12/15 15:53:17;;;;;;;6.13;3.35;;;;;;;;;;10464072;28;20024;-82
2023/12/15 15:58:17;;;;;;;6.13;3.88;;;;;;;;;;10465670;28;20081;-80
2023/12/15 16:03:18;;;;;;;6.90;3.90;;;;;;;;;;10495917;28;20674;-77
2023/12/15 16:08:18;;;;;;;6.03;3.00;;;;;;;;;;10470458;28;20458;-76
2023/12/15 16:13:18;;;;;;;5.32;3.33;;;;;;;;;;10470395;28;20036;-76
2023/12/15 16:18:18;;;;;;;6.03;3.33;;;;;;;;;;10463653;28;20021;-77
2023/12/15 16:23:19;;;;;;;6.68;3.47;;;;;;;;;;10476113;28;20204;-77
2023/12/15 16:28:20;;;;;;;3.58;2.90;;;;;;;;;;10463096;28;20126;-77
2023/12/15 16:33:20;;;;;;;3.75;2.40;;;;;;;;;;10507332;28;20548;-77
2023/12/15 16:38:20;;;;;;;3.57;1.90;;;;;;;;;;10470117;28;20876;-77
2023/12/15 16:43:22;;;;;;;5.30;1.95;;;;;;;;;;10483926;28;20479;-79
2023/12/15 16:48:22;;;;;;;3.20;2.15;;;;;;;;;;10462457;28;20028;-82
2023/12/15 16:53:22;;;;;;;6.07;2.30;;;;;;;;;;10439415;28;20021;-77
2023/12/15 16:58:24;;;;;;;5.27;2.70;;;;;;;;;;10452461;28;20048;-84
2023/12/15 17:03:24;;;;;;;6.10;2.58;;;;;;;;;;10427234;28;20981;-80
2023/12/15 17:08:24;;;;;;;6.30;3.15;;;;;;;;;;10438590;28;20024;-81
2023/12/15 17:13:24;;;;;;;3.53;1.67;;;;;;;;;;10461707;28;20023;-78
2023/12/15 17:18:25;;;;;;;4.13;1.88;;;;;;;;;;10452918;28;20032;-78
2023/12/15 17:23:25;;;;;;;3.70;1.77;;;;;;;;;;10447847;28;20048;-77
2023/12/15 17:28:25;;;;;;;2.00;1.13;;;;;;;;;;10457685;28;20104;-78
2023/12/15 17:33:25;;;;;;;2.22;1.35;;;;;;;;;;10453152;28;20032;-78
2023/12/15 17:38:27;;;;;;;2.30;1.77;;;;;;;;;;10447072;28;20031;-78
2023/12/15 17:43:27;;;;;;;3.20;1.45;;;;;;;;;;10456419;28;20024;-78
2023/12/15 17:48:27;;;;;;;4.32;2.55;;;;;;;;;;10445736;28;20494;-79
2023/12/15 17:53:28;;;;;;;3.05;1.80;;;;;;;;;;10444966;28;20035;-77
2023/12/15 17:58:29;;;;;;;4.38;1.95;;;;;;;;;;10466757;28;20032;-80
2023/12/15 18:03:29;;;;;;;2.30;1.65;;;;;;;;;;10452588;28;20024;-76
2023/12/15 18:08:30;;;;;;;4.05;1.80;;;;;;;;;;10466392;28;20415;-75
2023/12/15 18:13:30;;;;;;;3.43;2.60;;;;;;;;;;10425272;28;20021;-76
2023/12/15 18:18:30;;;;;;;3.75;1.95;;;;;;;;;;10442103;28;20021;-79
2023/12/15 18:23:31;;;;;;;258.23;182.35;;;;;;;;;;10460166;28;20053;-76
2023/12/15 18:28:31;;;;;;;4.38;2.30;;;;;;;;;;10445510;28;20035;-76
2023/12/15 18:33:31;;;;;;;5.75;2.05;;;;;;;;;;10453075;28;20058;-80
2023/12/15 18:38:32;;;;;;;3.42;1.98;;;;;;;;;;10454377;28;20024;-80
2023/12/15 18:43:32;;;;;;;6.13;2.35;;;;;;;;;;10446536;28;20414;-77
2023/12/15 18:48:33;;;;;;;3.80;2.25;;;;;;;;;;10450311;28;20103;-78
2023/12/15 18:53:33;;;;;;;5.57;2.53;;;;;;;;;;10447831;28;20074;-76
2023/12/15 18:58:35;;;;;;;5.05;2.95;;;;;;;;;;10426118;28;20463;-75
2023/12/15 19:03:36;;;;;;;7.00;3.13;;;;;;;;;;10449770;28;20553;-76
2023/12/15 19:08:36;;;;;;;5.78;2.58;;;;;;;;;;10446217;28;20395;-75
2023/12/15 19:13:37;;;;;;;8.02;3.80;;;;;;;;;;10452041;28;20024;-75
2023/12/15 19:18:37;;;;;;;6.32;3.15;;;;;;;;;;10446211;28;20021;-75
2023/12/15 19:23:38;;;;;;;6.03;3.15;;;;;;;;;;10444680;28;20511;-76
2023/12/15 19:28:38;;;;;;;13.70;3.10;;;;;;;;;;10441818;28;20509;-77
2023/12/15 19:33:40;;;;;;;5.57;3.40;;;;;;;;;;10448977;28;20020;-76
2023/12/15 19:38:41;;;;;;;4.63;2.63;;;;;;;;;;10438117;28;20802;-75
2023/12/15 19:43:43;;;;;;;7.03;3.72;;;;;;;;;;10436968;28;20053;-77
2023/12/15 19:48:43;;;;;;;6.30;2.83;;;;;;;;;;10448030;28;20043;-76
2023/12/15 19:53:43;;;;;;;6.90;3.25;;;;;;;;;;10445265;28;20031;-76
2023/12/15 19:58:45;;;;;;;7.25;4.70;;;;;;;;;;10447219;28;20403;-75
2023/12/15 20:03:46;;;;;;;9.07;5.18;;;;;;;;;;10459951;28;20023;-81
2023/12/15 20:08:47;;;;;;;9.18;4.80;;;;;;;;;;10443603;28;20036;-76
2023/12/15 20:13:47;;;;;;;8.85;5.13;;;;;;;;;;10461031;28;20028;-76
2023/12/15 20:18:48;;;;;;;7.47;3.95;;;;;;;;;;10436932;28;20021;-78
2023/12/15 20:23:48;;;;;;;4.68;2.70;;;;;;;;;;10445381;28;20522;-78
2023/12/15 20:28:48;;;;;;;4.40;1.60;;;;;;;;;;10449288;28;20040;-74
2023/12/15 20:33:50;;;;;;;5.97;3.00;;;;;;;;;;10437799;28;20028;-76
2023/12/15 20:38:52;;;;;;;209.73;134.93;;;;;;;;;;10427991;28;20029;-74
2023/12/15 20:43:52;;;;;;;376.20;161.18;;;;;;;;;;10462334;28;19904;-75
2023/12/15 20:48:53;;;;;;;3.25;1.70;;;;;;;;;;10453174;28;20037;-79
2023/12/15 20:53:53;;;;;;;3.28;2.30;;;;;;;;;;10468198;28;20087;-74
2023/12/15 20:58:54;;;;;;;2.55;1.70;;;;;;;;;;10479552;28;20066;-75
2023/12/15 21:03:56;;;;;;;4.50;2.58;;;;;;;;;;10470434;28;20021;-75
2023/12/15 21:08:58;;;;;;;5.72;2.50;;;;;;;;;;10466707;28;20132;-77
2023/12/15 21:13:58;;;;;;;4.88;1.80;;;;;;;;;;10452400;28;20035;-75
2023/12/15 21:19:05;;;;;;;3.22;2.75;;;;;;;;;;10459606;28;20048;-78
2023/12/15 21:24:05;;;;;;;2.50;1.90;;;;;;;;;;10446651;28;20056;-74
2023/12/15 21:29:06;;;;;;;3.05;1.90;;;;;;;;;;10445744;28;20036;-74
2023/12/15 21:34:07;;;;;;;2.00;1.58;;;;;;;;;;10440671;28;20447;-76
2023/12/15 21:39:08;;;;;;;2.58;1.70;;;;;;;;;;10448960;28;20105;-73
2023/12/15 21:44:09;;;;;;;2.30;1.90;;;;;;;;;;10445721;28;20075;-76
2023/12/15 21:49:09;;;;;;;64.97;5.75;;;;;;;;;;10444942;28;20502;-75
2023/12/15 21:54:09;;;;;;;4.17;2.50;;;;;;;;;;10442447;28;20028;-74
2023/12/15 21:59:12;;;;;;;3.13;1.98;;;;;;;;;;10465433;28;20040;-73
2023/12/15 22:04:12;;;;;;;4.50;1.95;;;;;;;;;;10445297;28;20595;-74
2023/12/15 22:09:12;;;;;;;3.60;2.40;;;;;;;;;;10439878;28;20039;-75
2023/12/15 22:14:12;;;;;;;7.75;2.55;;;;;;;;;;10454642;28;20126;-73
2023/12/15 22:19:13;;;;;;;3.55;2.38;;;;;;;;;;10450759;28;20040;-75
2023/12/15 22:24:13;;;;;;;9.55;3.25;;;;;;;;;;10445025;28;20466;-73
2023/12/15 22:29:13;;;;;;;8.00;3.33;;;;;;;;;;10446572;28;20062;-77
2023/12/15 22:34:14;;;;;;;8.40;3.38;;;;;;;;;;10468738;28;20028;-75
2023/12/15 22:39:14;;;;;;;4.45;3.17;;;;;;;;;;10449184;28;20514;-77
2023/12/15 22:44:15;;;;;;;3.90;2.15;;;;;;;;;;10463041;28;20077;-73
2023/12/15 22:49:15;;;;;;;3.67;1.85;;;;;;;;;;10445878;28;20029;-75
2023/12/15 22:54:15;;;;;;;4.28;2.85;;;;;;;;;;10436941;28;20364;-74
2023/12/15 22:59:16;;;;;;;4.75;2.78;;;;;;;;;;10445203;28;20151;-74
2023/12/15 23:04:16;;;;;;;3.22;2.22;;;;;;;;;;10442278;28;20032;-76
2023/12/15 23:09:17;;;;;;;3.00;1.80;;;;;;;;;;10464740;28;20528;-79
2023/12/15 23:14:18;;;;;;;3.05;1.70;;;;;;;;;;10441369;28;20478;-75
2023/12/15 23:19:18;;;;;;;2.83;2.00;;;;;;;;;;10463539;28;20035;-75
2023/12/15 23:24:18;;;;;;;3.88;2.35;;;;;;;;;;10453190;28;20049;-75
2023/12/15 23:29:19;;;;;;;4.00;2.10;;;;;;;;;;10439981;28;20093;-81
2023/12/15 23:34:20;;;;;;;2.97;2.28;;;;;;;;;;10445110;28;20021;-76
2023/12/15 23:39:20;;;;;;;4.30;2.00;;;;;;;;;;10457731;28;20016;-77
2023/12/15 23:44:21;;;;;;;2.88;2.05;;;;;;;;;;10439121;28;20082;-75
2023/12/15 23:49:21;;;;;;;1.83;1.60;;;;;;;;;;10446914;28;20487;-78
2023/12/15 23:54:21;;;;;;;2.33;1.65;;;;;;;;;;10439660;28;20442;-75
2023/12/15 23:59:22;;;;;;;1.75;1.40;;;;;;;;;;10432925;28;20501;-80
